sensor_id;sensor_type;location;lat;lon;timestamp;pressure;altitude;pressure_sealevel;temperature;humidity
64064;BME280;50314;50.618;10.642;2022-12-18T00:01:04;97861.38;;;16.75;17.58
64064;BME280;50314;50.618;10.642;2022-12-18T00:03:35;97861.91;;;16.68;17.41
64064;BME280;50314;50.618;10.642;2022-12-18T00:06:01;97860.44;;;16.64;17.64
64064;BME280;50314;50.618;10.642;2022-12-18T00:08:28;97859.84;;;16.61;17.54
64064;BME280;50314;50.618;10.642;2022-12-18T00:10:53;97861.06;;;16.57;17.66
64064;BME280;50314;50.618;10.642;2022-12-18T00:13:19;97864.19;;;16.51;17.61
64064;BME280;50314;50.618;10.642;2022-12-18T00:15:44;97861.91;;;16.46;17.61
64064;BME280;50314;50.618;10.642;2022-12-18T00:18:10;97864.94;;;16.41;17.70
64064;BME280;50314;50.618;10.642;2022-12-18T00:20:37;97867.13;;;16.36;17.56
64064;BME280;50314;50.618;10.642;2022-12-18T00:23:03;97871.97;;;16.31;18.00
64064;BME280;50314;50.618;10.642;2022-12-18T00:25:29;97872.44;;;16.25;17.77
64064;BME280;50314;50.618;10.642;2022-12-18T00:27:57;97871.84;;;16.22;17.70
64064;BME280;50314;50.618;10.642;2022-12-18T00:30:22;97871.25;;;16.18;17.67
64064;BME280;50314;50.618;10.642;2022-12-18T00:32:50;97880.53;;;16.12;17.68
64064;BME280;50314;50.618;10.642;2022-12-18T00:35:16;97880.59;;;16.11;17.76
64064;BME280;50314;50.618;10.642;2022-12-18T00:37:41;97886.41;;;16.05;17.91
64064;BME280;50314;50.618;10.642;2022-12-18T00:40:07;97893.78;;;16.01;17.77
64064;BME280;50314;50.618;10.642;2022-12-18T00:42:35;97876.59;;;15.94;17.61
64064;BME280;50314;50.618;10.642;2022-12-18T00:45:20;97894.72;;;15.89;17.94
64064;BME280;50314;50.618;10.642;2022-12-18T00:47:45;97893.38;;;15.83;17.74
64064;BME280;50314;50.618;10.642;2022-12-18T00:50:11;97891.06;;;15.79;17.95
64064;BME280;50314;50.618;10.642;2022-12-18T00:52:39;97889.50;;;15.76;17.77
64064;BME280;50314;50.618;10.642;2022-12-18T00:55:05;97891.44;;;15.74;17.91
64064;BME280;50314;50.618;10.642;2022-12-18T00:57:30;97884.63;;;15.70;17.98
64064;BME280;50314;50.618;10.642;2022-12-18T00:59:56;97889.47;;;15.65;17.93
64064;BME280;50314;50.618;10.642;2022-12-18T01:02:21;97885.34;;;15.61;17.90
64064;BME280;50314;50.618;10.642;2022-12-18T01:04:47;97884.84;;;15.56;18.00
64064;BME280;50314;50.618;10.642;2022-12-18T01:07:12;97887.72;;;15.53;17.99
64064;BME280;50314;50.618;10.642;2022-12-18T01:09:37;97895.22;;;15.47;18.04
64064;BME280;50314;50.618;10.642;2022-12-18T01:12:03;97890.22;;;15.43;17.92
64064;BME280;50314;50.618;10.642;2022-12-18T01:14:29;97892.22;;;15.39;18.00
64064;BME280;50314;50.618;10.642;2022-12-18T01:16:54;97897.06;;;15.34;18.09
64064;BME280;50314;50.618;10.642;2022-12-18T01:19:19;97897.28;;;15.31;18.18
64064;BME280;50314;50.618;10.642;2022-12-18T01:21:45;97893.25;;;15.25;18.25
64064;BME280;50314;50.618;10.642;2022-12-18T01:24:11;97897.72;;;15.25;18.00
64064;BME280;50314;50.618;10.642;2022-12-18T01:26:37;97893.63;;;15.21;18.37
64064;BME280;50314;50.618;10.642;2022-12-18T01:29:02;97901.91;;;15.16;18.07
64064;BME280;50314;50.618;10.642;2022-12-18T01:31:32;97905.75;;;15.12;18.14
64064;BME280;50314;50.618;10.642;2022-12-18T01:34:00;97907.06;;;15.07;18.09
64064;BME280;50314;50.618;10.642;2022-12-18T01:36:32;97906.66;;;15.00;18.26
64064;BME280;50314;50.618;10.642;2022-12-18T01:39:03;97910.38;;;14.97;18.13
64064;BME280;50314;50.618;10.642;2022-12-18T01:41:30;97907.81;;;14.96;18.11
64064;BME280;50314;50.618;10.642;2022-12-18T01:47:34;97914.34;;;14.79;18.33
64064;BME280;50314;50.618;10.642;2022-12-18T01:50:04;97917.97;;;14.78;18.42
64064;BME280;50314;50.618;10.642;2022-12-18T01:52:32;97914.69;;;14.74;18.25
64064;BME280;50314;50.618;10.642;2022-12-18T01:54:59;97921.03;;;14.72;18.46
64064;BME280;50314;50.618;10.642;2022-12-18T01:57:26;97915.97;;;14.69;18.40
64064;BME280;50314;50.618;10.642;2022-12-18T01:59:54;97917.13;;;14.65;18.24
64064;BME280;50314;50.618;10.642;2022-12-18T02:02:22;97902.38;;;14.61;18.27
64064;BME280;50314;50.618;10.642;2022-12-18T02:04:48;97910.56;;;14.57;18.40
64064;BME280;50314;50.618;10.642;2022-12-18T02:07:23;97900.38;;;14.51;18.29
64064;BME280;50314;50.618;10.642;2022-12-18T02:09:50;97909.31;;;14.50;18.41
64064;BME280;50314;50.618;10.642;2022-12-18T02:12:20;97911.31;;;14.47;18.17
64064;BME280;50314;50.618;10.642;2022-12-18T02:14:55;97911.66;;;14.42;18.43
64064;BME280;50314;50.618;10.642;2022-12-18T02:17:47;97920.25;;;14.33;18.39
64064;BME280;50314;50.618;10.642;2022-12-18T02:20:24;97918.66;;;14.30;18.64
64064;BME280;50314;50.618;10.642;2022-12-18T02:23:01;97925.84;;;14.28;18.44
64064;BME280;50314;50.618;10.642;2022-12-18T02:28:31;97920.03;;;14.23;18.52
64064;BME280;50314;50.618;10.642;2022-12-18T02:31:01;97913.97;;;14.21;18.76
64064;BME280;50314;50.618;10.642;2022-12-18T02:33:29;97909.66;;;14.20;18.58
64064;BME280;50314;50.618;10.642;2022-12-18T02:35:57;97908.06;;;14.18;18.48
64064;BME280;50314;50.618;10.642;2022-12-18T02:38:25;97903.81;;;14.15;18.80
64064;BME280;50314;50.618;10.642;2022-12-18T02:40:51;97906.56;;;14.14;18.41
64064;BME280;50314;50.618;10.642;2022-12-18T02:43:18;97900.66;;;14.10;18.82
64064;BME280;50314;50.618;10.642;2022-12-18T02:45:54;97909.75;;;14.06;18.47
64064;BME280;50314;50.618;10.642;2022-12-18T02:48:28;97916.13;;;14.03;18.48
64064;BME280;50314;50.618;10.642;2022-12-18T02:51:11;97907.75;;;13.97;18.96
64064;BME280;50314;50.618;10.642;2022-12-18T02:53:53;97909.53;;;13.96;18.78
64064;BME280;50314;50.618;10.642;2022-12-18T02:56:28;97912.28;;;13.95;18.58
64064;BME280;50314;50.618;10.642;2022-12-18T02:59:01;97901.91;;;13.92;18.66
64064;BME280;50314;50.618;10.642;2022-12-18T03:04:25;97899.75;;;13.84;18.88
64064;BME280;50314;50.618;10.642;2022-12-18T03:06:57;97894.44;;;13.84;18.55
64064;BME280;50314;50.618;10.642;2022-12-18T03:09:29;97903.34;;;13.83;18.86
64064;BME280;50314;50.618;10.642;2022-12-18T03:12:04;97901.75;;;13.80;18.99
64064;BME280;50314;50.618;10.642;2022-12-18T03:15:03;97908.22;;;13.76;18.60
64064;BME280;50314;50.618;10.642;2022-12-18T03:17:31;97909.06;;;13.77;18.77
64064;BME280;50314;50.618;10.642;2022-12-18T03:20:02;97911.81;;;13.75;18.65
64064;BME280;50314;50.618;10.642;2022-12-18T03:22:30;97921.66;;;13.73;18.64
64064;BME280;50314;50.618;10.642;2022-12-18T03:24:58;97918.16;;;13.73;18.85
64064;BME280;50314;50.618;10.642;2022-12-18T03:27:26;97903.44;;;13.69;18.77
64064;BME280;50314;50.618;10.642;2022-12-18T03:30:00;97904.38;;;13.68;18.70
64064;BME280;50314;50.618;10.642;2022-12-18T03:32:38;97900.16;;;13.65;19.10
64064;BME280;50314;50.618;10.642;2022-12-18T03:35:08;97901.00;;;13.66;18.95
64064;BME280;50314;50.618;10.642;2022-12-18T03:37:34;97888.06;;;13.61;19.11
64064;BME280;50314;50.618;10.642;2022-12-18T03:40:00;97889.88;;;13.60;19.02
64064;BME280;50314;50.618;10.642;2022-12-18T03:42:32;97898.00;;;13.57;18.80
64064;BME280;50314;50.618;10.642;2022-12-18T03:47:45;97913.25;;;13.54;18.78
64064;BME280;50314;50.618;10.642;2022-12-18T03:53:00;97916.09;;;13.51;19.09
64064;BME280;50314;50.618;10.642;2022-12-18T03:55:32;97911.75;;;13.50;19.10
64064;BME280;50314;50.618;10.642;2022-12-18T03:58:01;97903.94;;;13.48;18.85
64064;BME280;50314;50.618;10.642;2022-12-18T04:00:28;97907.50;;;13.47;19.30
64064;BME280;50314;50.618;10.642;2022-12-18T04:02:57;97905.06;;;13.44;19.04
64064;BME280;50314;50.618;10.642;2022-12-18T04:05:27;97901.59;;;13.44;19.18
64064;BME280;50314;50.618;10.642;2022-12-18T04:07:54;97902.66;;;13.41;18.87
64064;BME280;50314;50.618;10.642;2022-12-18T04:10:21;97910.47;;;13.43;18.92
64064;BME280;50314;50.618;10.642;2022-12-18T04:12:46;97900.94;;;13.40;18.94
64064;BME280;50314;50.618;10.642;2022-12-18T04:15:13;97912.47;;;13.39;19.08
64064;BME280;50314;50.618;10.642;2022-12-18T04:17:46;97910.88;;;13.36;19.01
64064;BME280;50314;50.618;10.642;2022-12-18T04:20:12;97916.78;;;13.27;19.09
64064;BME280;50314;50.618;10.642;2022-12-18T04:22:37;97916.56;;;13.30;19.07
64064;BME280;50314;50.618;10.642;2022-12-18T04:25:03;97908.63;;;13.30;19.27
64064;BME280;50314;50.618;10.642;2022-12-18T04:27:29;97914.03;;;13.29;19.30
64064;BME280;50314;50.618;10.642;2022-12-18T04:29:54;97908.75;;;13.29;19.32
64064;BME280;50314;50.618;10.642;2022-12-18T04:32:19;97908.94;;;13.26;19.23
64064;BME280;50314;50.618;10.642;2022-12-18T04:34:45;97905.53;;;13.24;19.15
64064;BME280;50314;50.618;10.642;2022-12-18T04:37:10;97905.75;;;13.21;19.39
64064;BME280;50314;50.618;10.642;2022-12-18T04:39:36;97906.81;;;13.18;19.29
64064;BME280;50314;50.618;10.642;2022-12-18T04:42:02;97902.38;;;13.19;19.43
64064;BME280;50314;50.618;10.642;2022-12-18T04:44:27;97908.63;;;13.18;19.44
64064;BME280;50314;50.618;10.642;2022-12-18T04:46:53;97915.88;;;13.14;19.36
64064;BME280;50314;50.618;10.642;2022-12-18T04:49:18;97920.28;;;13.13;19.38
64064;BME280;50314;50.618;10.642;2022-12-18T04:51:44;97921.25;;;13.12;19.18
64064;BME280;50314;50.618;10.642;2022-12-18T04:54:09;97921.34;;;13.11;19.43
64064;BME280;50314;50.618;10.642;2022-12-18T04:56:35;97929.38;;;13.09;19.51
64064;BME280;50314;50.618;10.642;2022-12-18T04:59:00;97926.84;;;13.08;19.48
64064;BME280;50314;50.618;10.642;2022-12-18T05:03:51;97940.34;;;13.03;19.25
64064;BME280;50314;50.618;10.642;2022-12-18T05:06:17;97937.81;;;13.02;19.58
64064;BME280;50314;50.618;10.642;2022-12-18T05:08:42;97940.53;;;13.00;19.43
64064;BME280;50314;50.618;10.642;2022-12-18T05:11:10;97934.41;;;13.00;19.41
64064;BME280;50314;50.618;10.642;2022-12-18T05:13:36;97931.88;;;12.98;19.38
64064;BME280;50314;50.618;10.642;2022-12-18T05:16:03;97932.84;;;12.97;19.43
64064;BME280;50314;50.618;10.642;2022-12-18T05:18:29;97921.38;;;12.97;19.46
64064;BME280;50314;50.618;10.642;2022-12-18T05:20:55;97931.22;;;12.95;19.40
64064;BME280;50314;50.618;10.642;2022-12-18T05:23:22;97928.66;;;12.93;19.37
64064;BME280;50314;50.618;10.642;2022-12-18T05:25:52;97934.13;;;12.90;19.54
64064;BME280;50314;50.618;10.642;2022-12-18T05:28:18;97935.00;;;12.90;19.45
64064;BME280;50314;50.618;10.642;2022-12-18T05:30:48;97928.19;;;12.86;19.73
64064;BME280;50314;50.618;10.642;2022-12-18T05:33:14;97932.66;;;12.86;19.27
64064;BME280;50314;50.618;10.642;2022-12-18T05:35:40;97939.84;;;12.84;19.48
64064;BME280;50314;50.618;10.642;2022-12-18T05:38:05;97950.63;;;12.81;19.57
64064;BME280;50314;50.618;10.642;2022-12-18T05:40:31;97945.41;;;12.79;19.69
64064;BME280;50314;50.618;10.642;2022-12-18T05:42:56;97949.84;;;12.79;19.46
64064;BME280;50314;50.618;10.642;2022-12-18T05:45:22;97949.09;;;12.77;19.53
64064;BME280;50314;50.618;10.642;2022-12-18T05:47:47;97945.72;;;12.75;19.64
64064;BME280;50314;50.618;10.642;2022-12-18T05:50:12;97951.00;;;12.75;19.72
64064;BME280;50314;50.618;10.642;2022-12-18T05:52:38;97947.59;;;12.73;19.42
64064;BME280;50314;50.618;10.642;2022-12-18T05:55:04;97948.53;;;12.72;19.65
64064;BME280;50314;50.618;10.642;2022-12-18T05:57:30;97946.09;;;12.68;19.50
64064;BME280;50314;50.618;10.642;2022-12-18T05:59:55;97953.25;;;12.66;19.56
64064;BME280;50314;50.618;10.642;2022-12-18T06:02:21;97957.69;;;12.66;19.61
64064;BME280;50314;50.618;10.642;2022-12-18T06:04:46;97960.44;;;12.64;19.74
64064;BME280;50314;50.618;10.642;2022-12-18T06:07:12;97962.31;;;12.62;19.67
64064;BME280;50314;50.618;10.642;2022-12-18T06:09:38;97954.50;;;12.61;19.71
64064;BME280;50314;50.618;10.642;2022-12-18T06:12:03;97964.22;;;12.60;19.66
64064;BME280;50314;50.618;10.642;2022-12-18T06:14:29;97968.63;;;12.60;19.73
64064;BME280;50314;50.618;10.642;2022-12-18T06:16:54;97966.94;;;12.59;19.80
64064;BME280;50314;50.618;10.642;2022-12-18T06:19:20;97963.56;;;12.57;19.73
64064;BME280;50314;50.618;10.642;2022-12-18T06:21:45;97965.25;;;12.58;19.71
64064;BME280;50314;50.618;10.642;2022-12-18T06:24:11;97964.50;;;12.56;19.75
64064;BME280;50314;50.618;10.642;2022-12-18T06:26:37;97968.09;;;12.55;19.67
64064;BME280;50314;50.618;10.642;2022-12-18T06:29:04;97969.97;;;12.53;19.79
64064;BME280;50314;50.618;10.642;2022-12-18T06:31:29;97971.75;;;12.52;19.74
64064;BME280;50314;50.618;10.642;2022-12-18T06:33:55;97970.06;;;12.51;19.78
64064;BME280;50314;50.618;10.642;2022-12-18T06:36:20;97964.03;;;12.49;19.76
64064;BME280;50314;50.618;10.642;2022-12-18T06:38:46;97962.22;;;12.50;19.74
64064;BME280;50314;50.618;10.642;2022-12-18T06:41:20;97958.09;;;12.45;19.75
64064;BME280;50314;50.618;10.642;2022-12-18T06:43:45;97961.50;;;12.48;19.80
64064;BME280;50314;50.618;10.642;2022-12-18T06:46:12;97959.88;;;12.45;19.76
64064;BME280;50314;50.618;10.642;2022-12-18T06:48:38;97962.63;;;12.43;19.79
64064;BME280;50314;50.618;10.642;2022-12-18T06:51:04;97960.00;;;12.43;19.81
64064;BME280;50314;50.618;10.642;2022-12-18T06:53:31;97958.38;;;12.41;19.73
64064;BME280;50314;50.618;10.642;2022-12-18T06:56:05;97963.84;;;12.38;19.60
64064;BME280;50314;50.618;10.642;2022-12-18T06:58:32;97952.31;;;12.39;19.88
64064;BME280;50314;50.618;10.642;2022-12-18T07:01:02;97958.66;;;12.36;19.81
64064;BME280;50314;50.618;10.642;2022-12-18T07:03:28;97954.31;;;12.35;19.81
64064;BME280;50314;50.618;10.642;2022-12-18T07:05:54;97953.47;;;12.35;19.84
64064;BME280;50314;50.618;10.642;2022-12-18T07:08:19;97956.19;;;12.33;19.93
64064;BME280;50314;50.618;10.642;2022-12-18T07:10:44;97961.47;;;12.33;19.95
64064;BME280;50314;50.618;10.642;2022-12-18T07:13:10;97967.66;;;12.32;19.89
64064;BME280;50314;50.618;10.642;2022-12-18T07:15:36;97970.41;;;12.31;19.88
64064;BME280;50314;50.618;10.642;2022-12-18T07:18:01;97974.00;;;12.30;19.91
64064;BME280;50314;50.618;10.642;2022-12-18T07:20:27;97976.66;;;12.30;19.83
64064;BME280;50314;50.618;10.642;2022-12-18T07:22:52;97989.09;;;12.28;19.99
64064;BME280;50314;50.618;10.642;2022-12-18T07:25:17;97985.59;;;12.27;20.04
64064;BME280;50314;50.618;10.642;2022-12-18T07:27:43;97985.69;;;12.26;19.98
64064;BME280;50314;50.618;10.642;2022-12-18T07:30:09;97991.91;;;12.25;20.09
64064;BME280;50314;50.618;10.642;2022-12-18T07:32:34;97996.34;;;12.24;20.08
64064;BME280;50314;50.618;10.642;2022-12-18T07:35:00;97998.16;;;12.23;20.07
64064;BME280;50314;50.618;10.642;2022-12-18T07:37:25;98009.63;;;12.22;20.06
64064;BME280;50314;50.618;10.642;2022-12-18T07:39:51;98006.25;;;12.20;20.19
64064;BME280;50314;50.618;10.642;2022-12-18T07:42:16;98007.22;;;12.19;20.09
64064;BME280;50314;50.618;10.642;2022-12-18T07:44:58;98014.34;;;12.17;20.25
64064;BME280;50314;50.618;10.642;2022-12-18T07:47:23;98021.44;;;12.17;20.10
64064;BME280;50314;50.618;10.642;2022-12-18T07:49:49;98024.16;;;12.15;20.19
64064;BME280;50314;50.618;10.642;2022-12-18T07:52:15;98037.47;;;12.14;20.21
64064;BME280;50314;50.618;10.642;2022-12-18T07:54:40;98030.38;;;12.14;20.25
64064;BME280;50314;50.618;10.642;2022-12-18T07:57:06;98037.47;;;12.14;20.13
64064;BME280;50314;50.618;10.642;2022-12-18T07:59:32;98037.53;;;12.12;20.28
64064;BME280;50314;50.618;10.642;2022-12-18T08:01:57;98041.13;;;12.11;20.10
64064;BME280;50314;50.618;10.642;2022-12-18T08:04:24;98051.63;;;12.13;20.19
64064;BME280;50314;50.618;10.642;2022-12-18T08:06:49;98044.72;;;12.10;20.11
64064;BME280;50314;50.618;10.642;2022-12-18T08:09:15;98048.28;;;12.09;20.14
64064;BME280;50314;50.618;10.642;2022-12-18T08:11:41;98047.34;;;12.10;20.33
64064;BME280;50314;50.618;10.642;2022-12-18T08:14:06;98048.19;;;12.11;20.11
64064;BME280;50314;50.618;10.642;2022-12-18T08:16:31;98043.09;;;12.08;20.16
64064;BME280;50314;50.618;10.642;2022-12-18T08:18:57;98042.25;;;12.07;20.16
64064;BME280;50314;50.618;10.642;2022-12-18T08:21:28;98042.53;;;12.03;20.18
64064;BME280;50314;50.618;10.642;2022-12-18T08:23:57;98040.63;;;12.05;20.23
64064;BME280;50314;50.618;10.642;2022-12-18T08:26:24;98038.00;;;12.05;20.21
64064;BME280;50314;50.618;10.642;2022-12-18T08:28:50;98029.22;;;12.04;20.11
64064;BME280;50314;50.618;10.642;2022-12-18T08:31:16;98014.22;;;12.05;20.20
64064;BME280;50314;50.618;10.642;2022-12-18T08:33:42;98014.22;;;12.05;20.30
64064;BME280;50314;50.618;10.642;2022-12-18T08:36:08;98007.25;;;12.04;20.35
64064;BME280;50314;50.618;10.642;2022-12-18T08:38:35;97995.84;;;12.03;20.42
64064;BME280;50314;50.618;10.642;2022-12-18T08:41:06;98003.84;;;12.02;20.35
64064;BME280;50314;50.618;10.642;2022-12-18T08:43:31;98008.09;;;12.04;20.48
64064;BME280;50314;50.618;10.642;2022-12-18T08:46:16;98013.56;;;12.01;20.43
64064;BME280;50314;50.618;10.642;2022-12-18T08:48:42;98015.34;;;12.01;20.41
64064;BME280;50314;50.618;10.642;2022-12-18T08:51:07;98002.16;;;12.01;20.41
64064;BME280;50314;50.618;10.642;2022-12-18T08:53:35;98010.16;;;11.99;20.41
64064;BME280;50314;50.618;10.642;2022-12-18T08:56:00;98012.78;;;11.99;20.44
64064;BME280;50314;50.618;10.642;2022-12-18T08:58:26;98021.47;;;12.01;20.61
64064;BME280;50314;50.618;10.642;2022-12-18T09:00:51;98022.44;;;12.00;20.41
64064;BME280;50314;50.618;10.642;2022-12-18T09:03:18;98013.75;;;11.98;20.48
64064;BME280;50314;50.618;10.642;2022-12-18T09:05:45;98018.06;;;11.99;20.48
64064;BME280;50314;50.618;10.642;2022-12-18T09:08:11;98015.44;;;11.99;20.34
64064;BME280;50314;50.618;10.642;2022-12-18T09:10:48;98018.06;;;11.99;20.42
64064;BME280;50314;50.618;10.642;2022-12-18T09:13:14;98016.03;;;12.04;20.37
64064;BME280;50314;50.618;10.642;2022-12-18T09:15:44;98007.25;;;12.04;20.43
64064;BME280;50314;50.618;10.642;2022-12-18T09:18:11;98002.81;;;12.04;20.46
64064;BME280;50314;50.618;10.642;2022-12-18T09:20:38;98006.13;;;12.08;20.56
64064;BME280;50314;50.618;10.642;2022-12-18T09:23:04;97995.28;;;12.12;20.62
64064;BME280;50314;50.618;10.642;2022-12-18T09:25:30;97990.59;;;12.17;20.85
64064;BME280;50314;50.618;10.642;2022-12-18T09:28:11;97990.22;;;12.23;20.94
64064;BME280;50314;50.618;10.642;2022-12-18T09:30:39;97992.28;;;12.33;21.12
64064;BME280;50314;50.618;10.642;2022-12-18T09:33:04;97984.97;;;12.38;21.17
64064;BME280;50314;50.618;10.642;2022-12-18T09:35:30;97981.19;;;12.56;21.31
64064;BME280;50314;50.618;10.642;2022-12-18T09:37:55;97982.72;;;12.75;21.19
64064;BME280;50314;50.618;10.642;2022-12-18T09:40:23;97977.41;;;12.89;21.28
64064;BME280;50314;50.618;10.642;2022-12-18T09:42:57;97971.25;;;13.03;21.38
64064;BME280;50314;50.618;10.642;2022-12-18T09:45:25;97974.63;;;13.19;21.43
64064;BME280;50314;50.618;10.642;2022-12-18T09:47:52;97982.63;;;13.32;21.37
64064;BME280;50314;50.618;10.642;2022-12-18T09:50:32;97982.69;;;13.45;21.38
64064;BME280;50314;50.618;10.642;2022-12-18T09:53:04;97974.50;;;13.62;21.68
64064;BME280;50314;50.618;10.642;2022-12-18T09:55:37;97975.91;;;13.80;21.36
64064;BME280;50314;50.618;10.642;2022-12-18T09:58:29;97977.25;;;14.00;21.96
64064;BME280;50314;50.618;10.642;2022-12-18T10:00:53;97973.13;;;14.22;21.52
64064;BME280;50314;50.618;10.642;2022-12-18T10:03:18;97975.28;;;14.42;22.01
64064;BME280;50314;50.618;10.642;2022-12-18T10:11:43;97971.59;;;15.07;21.75
64064;BME280;50314;50.618;10.642;2022-12-18T10:19:40;97970.94;;;15.64;21.92
64064;BME280;50314;50.618;10.642;2022-12-18T10:22:42;97965.84;;;15.85;21.80
64064;BME280;50314;50.618;10.642;2022-12-18T10:25:40;97972.16;;;16.07;21.73
64064;BME280;50314;50.618;10.642;2022-12-18T10:28:13;97970.56;;;16.28;21.65
64064;BME280;50314;50.618;10.642;2022-12-18T10:30:40;97972.63;;;16.47;21.55
64064;BME280;50314;50.618;10.642;2022-12-18T10:33:08;97979.28;;;16.53;21.53
64064;BME280;50314;50.618;10.642;2022-12-18T10:35:36;97984.63;;;16.75;21.35
64064;BME280;50314;50.618;10.642;2022-12-18T10:40:53;97973.13;;;16.97;20.75
64064;BME280;50314;50.618;10.642;2022-12-18T10:43:22;97976.50;;;17.10;21.08
64064;BME280;50314;50.618;10.642;2022-12-18T10:48:35;97970.25;;;17.32;20.49
64064;BME280;50314;50.618;10.642;2022-12-18T10:51:02;97972.06;;;17.43;20.20
64064;BME280;50314;50.618;10.642;2022-12-18T10:53:30;97965.91;;;17.54;20.26
64064;BME280;50314;50.618;10.642;2022-12-18T10:55:58;97956.88;;;17.66;20.38
64064;BME280;50314;50.618;10.642;2022-12-18T10:58:27;97956.84;;;17.77;20.38
64064;BME280;50314;50.618;10.642;2022-12-18T11:01:13;97954.03;;;17.79;19.83
64064;BME280;50314;50.618;10.642;2022-12-18T11:03:46;97959.44;;;17.89;20.08
64064;BME280;50314;50.618;10.642;2022-12-18T11:06:17;97964.97;;;17.97;19.62
64064;BME280;50314;50.618;10.642;2022-12-18T11:08:57;97968.94;;;18.02;19.63
64064;BME280;50314;50.618;10.642;2022-12-18T11:11:24;97970.72;;;18.13;19.93
64064;BME280;50314;50.618;10.642;2022-12-18T11:14:05;97975.78;;;18.16;20.10
64064;BME280;50314;50.618;10.642;2022-12-18T11:16:36;97978.91;;;18.21;19.66
64064;BME280;50314;50.618;10.642;2022-12-18T11:19:21;97981.44;;;18.23;19.42
64064;BME280;50314;50.618;10.642;2022-12-18T11:21:49;97977.16;;;18.31;19.99
64064;BME280;50314;50.618;10.642;2022-12-18T11:26:54;97961.91;;;18.43;19.72
64064;BME280;50314;50.618;10.642;2022-12-18T11:29:27;97965.72;;;18.50;19.94
64064;BME280;50314;50.618;10.642;2022-12-18T11:34:38;97957.69;;;18.71;20.10
64064;BME280;50314;50.618;10.642;2022-12-18T11:37:05;97954.03;;;18.72;19.89
64064;BME280;50314;50.618;10.642;2022-12-18T11:39:36;97949.47;;;18.84;19.92
64064;BME280;50314;50.618;10.642;2022-12-18T11:42:20;97950.75;;;18.90;19.31
64064;BME280;50314;50.618;10.642;2022-12-18T11:44:51;97945.44;;;18.99;19.26
64064;BME280;50314;50.618;10.642;2022-12-18T11:50:42;97913.88;;;19.05;19.19
64064;BME280;50314;50.618;10.642;2022-12-18T11:53:12;97904.44;;;19.10;19.46
64064;BME280;50314;50.618;10.642;2022-12-18T12:17:29;97882.03;;;19.42;19.06
64064;BME280;50314;50.618;10.642;2022-12-18T12:32:11;97903.09;;;19.55;18.66
64064;BME280;50314;50.618;10.642;2022-12-18T12:37:23;97904.34;;;19.60;18.97
64064;BME280;50314;50.618;10.642;2022-12-18T12:39:51;97901.25;;;19.65;18.49
64064;BME280;50314;50.618;10.642;2022-12-18T12:42:26;97902.41;;;19.62;18.40
64064;BME280;50314;50.618;10.642;2022-12-18T12:45:20;97889.31;;;19.59;18.05
64064;BME280;50314;50.618;10.642;2022-12-18T12:47:48;97878.63;;;19.59;18.24
64064;BME280;50314;50.618;10.642;2022-12-18T12:50:17;97883.13;;;19.59;17.54
64064;BME280;50314;50.618;10.642;2022-12-18T12:52:47;97875.25;;;19.57;17.52
64064;BME280;50314;50.618;10.642;2022-12-18T12:55:23;97858.50;;;19.55;17.53
64064;BME280;50314;50.618;10.642;2022-12-18T12:58:15;97860.88;;;19.58;17.61
64064;BME280;50314;50.618;10.642;2022-12-18T13:01:02;97855.53;;;19.58;17.87
64064;BME280;50314;50.618;10.642;2022-12-18T13:03:56;97858.38;;;19.66;18.07
64064;BME280;50314;50.618;10.642;2022-12-18T13:06:41;97848.78;;;19.74;17.91
64064;BME280;50314;50.618;10.642;2022-12-18T13:09:08;97855.09;;;19.82;18.23
64064;BME280;50314;50.618;10.642;2022-12-18T13:11:42;97854.38;;;19.90;18.01
64064;BME280;50314;50.618;10.642;2022-12-18T13:14:36;97855.59;;;19.95;17.88
64064;BME280;50314;50.618;10.642;2022-12-18T13:19:51;97854.75;;;20.14;17.65
64064;BME280;50314;50.618;10.642;2022-12-18T13:22:47;97851.50;;;20.21;17.90
64064;BME280;50314;50.618;10.642;2022-12-18T13:25:37;97841.59;;;20.31;17.76
64064;BME280;50314;50.618;10.642;2022-12-18T13:28:07;97836.88;;;20.42;17.95
64064;BME280;50314;50.618;10.642;2022-12-18T13:40:54;97855.22;;;20.75;18.02
64064;BME280;50314;50.618;10.642;2022-12-18T13:46:17;97845.88;;;20.79;17.90
64064;BME280;50314;50.618;10.642;2022-12-18T13:49:36;97838.25;;;20.84;18.02
64064;BME280;50314;50.618;10.642;2022-12-18T13:51:35;97847.50;;;20.89;17.95
64064;BME280;50314;50.618;10.642;2022-12-18T13:54:32;97843.13;;;20.88;17.99
64064;BME280;50314;50.618;10.642;2022-12-18T13:56:58;97850.41;;;20.96;17.78
64064;BME280;50314;50.618;10.642;2022-12-18T13:59:26;97851.13;;;20.98;17.98
64064;BME280;50314;50.618;10.642;2022-12-18T14:01:57;97851.13;;;20.98;18.11
64064;BME280;50314;50.618;10.642;2022-12-18T14:04:32;97851.13;;;20.98;18.28
64064;BME280;50314;50.618;10.642;2022-12-18T14:07:16;97844.63;;;21.01;18.16
64064;BME280;50314;50.618;10.642;2022-12-18T14:09:44;97843.31;;;21.05;18.23
64064;BME280;50314;50.618;10.642;2022-12-18T14:12:20;97850.66;;;21.03;17.91
64064;BME280;50314;50.618;10.642;2022-12-18T14:15:16;97852.19;;;21.05;17.96
64064;BME280;50314;50.618;10.642;2022-12-18T14:17:47;97846.53;;;21.08;17.78
64064;BME280;50314;50.618;10.642;2022-12-18T14:20:14;97851.59;;;21.11;17.65
64064;BME280;50314;50.618;10.642;2022-12-18T14:22:43;97854.25;;;21.11;17.40
64064;BME280;50314;50.618;10.642;2022-12-18T14:25:14;97855.81;;;21.14;17.28
64064;BME280;50314;50.618;10.642;2022-12-18T14:27:50;97869.19;;;21.14;17.22
64064;BME280;50314;50.618;10.642;2022-12-18T14:30:51;97884.41;;;21.13;17.07
64064;BME280;50314;50.618;10.642;2022-12-18T14:33:19;97886.19;;;21.23;17.27
64064;BME280;50314;50.618;10.642;2022-12-18T14:35:58;97879.16;;;21.22;17.08
64064;BME280;50314;50.618;10.642;2022-12-18T14:38:25;97887.44;;;21.28;17.46